sensor_id;sensor_type;location;lat;lon;timestamp;temperature;humidity
33023;DHT22;19390;51.460;5.710;2022-08-06T00:02:18;10.10;99.90
33023;DHT22;19390;51.460;5.710;2022-08-06T00:04:46;10.10;99.90
33023;DHT22;19390;51.460;5.710;2022-08-06T00:07:12;10.10;99.90
33023;DHT22;19390;51.460;5.710;2022-08-06T00:09:38;10.10;99.90
33023;DHT22;19390;51.460;5.710;2022-08-06T00:12:04;10.00;99.90
33023;DHT22;19390;51.460;5.710;2022-08-06T00:14:31;10.00;99.90
33023;DHT22;19390;51.460;5.710;2022-08-06T00:16:58;9.90;99.90
33023;DHT22;19390;51.460;5.710;2022-08-06T00:19:24;9.90;99.90
33023;DHT22;19390;51.460;5.710;2022-08-06T00:21:50;9.80;99.90
33023;DHT22;19390;51.460;5.710;2022-08-06T00:24:16;9.80;99.90
33023;DHT22;19390;51.460;5.710;2022-08-06T00:26:42;9.80;99.90
33023;DHT22;19390;51.460;5.710;2022-08-06T00:29:07;9.70;99.90
33023;DHT22;19390;51.460;5.710;2022-08-06T00:31:33;9.70;99.90
33023;DHT22;19390;51.460;5.710;2022-08-06T00:34:00;9.60;99.90
33023;DHT22;19390;51.460;5.710;2022-08-06T00:36:28;9.60;99.90
33023;DHT22;19390;51.460;5.710;2022-08-06T00:38:54;9.50;99.90
33023;DHT22;19390;51.460;5.710;2022-08-06T00:41:21;9.50;99.90
33023;DHT22;19390;51.460;5.710;2022-08-06T00:43:47;9.60;99.90
33023;DHT22;19390;51.460;5.710;2022-08-06T00:46:12;9.40;99.90
33023;DHT22;19390;51.460;5.710;2022-08-06T00:48:38;9.50;99.90
33023;DHT22;19390;51.460;5.710;2022-08-06T00:51:04;9.50;99.90
33023;DHT22;19390;51.460;5.710;2022-08-06T00:53:30;9.50;99.90
33023;DHT22;19390;51.460;5.710;2022-08-06T00:55:55;9.50;99.90
33023;DHT22;19390;51.460;5.710;2022-08-06T00:58:21;9.50;99.90
33023;DHT22;19390;51.460;5.710;2022-08-06T01:00:47;9.50;99.90
33023;DHT22;19390;51.460;5.710;2022-08-06T01:03:12;9.40;99.90
33023;DHT22;19390;51.460;5.710;2022-08-06T01:05:44;9.40;99.90
33023;DHT22;19390;51.460;5.710;2022-08-06T01:08:11;9.40;99.90
33023;DHT22;19390;51.460;5.710;2022-08-06T01:10:37;9.50;99.90
33023;DHT22;19390;51.460;5.710;2022-08-06T01:13:03;9.50;99.90
33023;DHT22;19390;51.460;5.710;2022-08-06T01:15:29;9.30;99.90
33023;DHT22;19390;51.460;5.710;2022-08-06T01:18:08;9.30;99.90
33023;DHT22;19390;51.460;5.710;2022-08-06T01:23:38;9.10;99.90
33023;DHT22;19390;51.460;5.710;2022-08-06T01:29:29;9.00;99.90
33023;DHT22;19390;51.460;5.710;2022-08-06T01:32:15;9.10;99.90
33023;DHT22;19390;51.460;5.710;2022-08-06T01:34:51;9.30;99.90
33023;DHT22;19390;51.460;5.710;2022-08-06T01:37:48;9.20;99.90
33023;DHT22;19390;51.460;5.710;2022-08-06T01:40:20;9.10;99.90
33023;DHT22;19390;51.460;5.710;2022-08-06T01:42:48;9.10;99.90
33023;DHT22;19390;51.460;5.710;2022-08-06T01:45:17;9.10;99.90
33023;DHT22;19390;51.460;5.710;2022-08-06T01:47:48;9.00;99.90
33023;DHT22;19390;51.460;5.710;2022-08-06T01:50:17;9.10;99.90
33023;DHT22;19390;51.460;5.710;2022-08-06T01:52:43;9.20;99.90
33023;DHT22;19390;51.460;5.710;2022-08-06T01:55:13;9.10;99.90
33023;DHT22;19390;51.460;5.710;2022-08-06T01:57:43;9.10;99.90
33023;DHT22;19390;51.460;5.710;2022-08-06T02:00:10;9.00;99.90
33023;DHT22;19390;51.460;5.710;2022-08-06T02:02:37;9.00;99.90
33023;DHT22;19390;51.460;5.710;2022-08-06T02:05:05;9.00;99.90
33023;DHT22;19390;51.460;5.710;2022-08-06T02:07:34;9.00;99.90
33023;DHT22;19390;51.460;5.710;2022-08-06T02:10:03;9.00;99.90
33023;DHT22;19390;51.460;5.710;2022-08-06T02:12:30;9.00;99.90
33023;DHT22;19390;51.460;5.710;2022-08-06T02:15:17;9.00;99.90
33023;DHT22;19390;51.460;5.710;2022-08-06T02:17:49;9.00;99.90
33023;DHT22;19390;51.460;5.710;2022-08-06T02:20:17;9.00;99.90
33023;DHT22;19390;51.460;5.710;2022-08-06T02:22:45;8.90;99.90
33023;DHT22;19390;51.460;5.710;2022-08-06T02:25:13;8.90;99.90
33023;DHT22;19390;51.460;5.710;2022-08-06T02:27:44;9.00;99.90
33023;DHT22;19390;51.460;5.710;2022-08-06T02:30:12;8.90;99.90
33023;DHT22;19390;51.460;5.710;2022-08-06T02:32:39;8.80;99.90
33023;DHT22;19390;51.460;5.710;2022-08-06T02:35:05;8.80;99.90
33023;DHT22;19390;51.460;5.710;2022-08-06T02:37:52;8.70;99.90
33023;DHT22;19390;51.460;5.710;2022-08-06T02:40:25;8.60;99.90
33023;DHT22;19390;51.460;5.710;2022-08-06T02:43:04;8.60;99.90
33023;DHT22;19390;51.460;5.710;2022-08-06T02:45:58;8.70;99.90
33023;DHT22;19390;51.460;5.710;2022-08-06T02:48:45;8.70;99.90
33023;DHT22;19390;51.460;5.710;2022-08-06T02:51:18;8.60;99.90
33023;DHT22;19390;51.460;5.710;2022-08-06T02:53:56;8.60;99.90
33023;DHT22;19390;51.460;5.710;2022-08-06T02:56:23;8.60;99.90
33023;DHT22;19390;51.460;5.710;2022-08-06T02:58:51;8.60;99.90
33023;DHT22;19390;51.460;5.710;2022-08-06T03:01:25;8.40;99.90
33023;DHT22;19390;51.460;5.710;2022-08-06T03:03:53;8.50;99.90
33023;DHT22;19390;51.460;5.710;2022-08-06T03:06:22;8.40;99.90
33023;DHT22;19390;51.460;5.710;2022-08-06T03:08:51;8.40;99.90
33023;DHT22;19390;51.460;5.710;2022-08-06T03:11:18;8.60;99.90
33023;DHT22;19390;51.460;5.710;2022-08-06T03:13:45;8.60;99.90
33023;DHT22;19390;51.460;5.710;2022-08-06T03:16:12;8.60;99.90
33023;DHT22;19390;51.460;5.710;2022-08-06T03:18:39;8.60;99.90
33023;DHT22;19390;51.460;5.710;2022-08-06T03:21:07;8.50;99.90
33023;DHT22;19390;51.460;5.710;2022-08-06T03:23:34;8.50;99.90
33023;DHT22;19390;51.460;5.710;2022-08-06T03:26:01;8.30;99.90
33023;DHT22;19390;51.460;5.710;2022-08-06T03:28:28;8.40;99.90
33023;DHT22;19390;51.460;5.710;2022-08-06T03:30:55;8.40;99.90
33023;DHT22;19390;51.460;5.710;2022-08-06T03:33:22;8.40;99.90
33023;DHT22;19390;51.460;5.710;2022-08-06T03:35:50;8.30;99.90
33023;DHT22;19390;51.460;5.710;2022-08-06T03:38:17;8.30;99.90
33023;DHT22;19390;51.460;5.710;2022-08-06T03:40:44;8.20;99.90
33023;DHT22;19390;51.460;5.710;2022-08-06T03:43:10;8.10;99.90
33023;DHT22;19390;51.460;5.710;2022-08-06T03:45:38;8.10;99.90
33023;DHT22;19390;51.460;5.710;2022-08-06T03:48:06;8.20;99.90
33023;DHT22;19390;51.460;5.710;2022-08-06T03:50:38;8.10;99.90
33023;DHT22;19390;51.460;5.710;2022-08-06T03:53:27;8.10;99.90
33023;DHT22;19390;51.460;5.710;2022-08-06T03:55:57;8.10;99.90
33023;DHT22;19390;51.460;5.710;2022-08-06T03:58:24;8.10;99.90
33023;DHT22;19390;51.460;5.710;2022-08-06T04:01:02;8.10;99.90
33023;DHT22;19390;51.460;5.710;2022-08-06T04:03:28;8.10;99.90
33023;DHT22;19390;51.460;5.710;2022-08-06T04:05:56;8.00;99.90
33023;DHT22;19390;51.460;5.710;2022-08-06T04:08:22;8.10;99.90
33023;DHT22;19390;51.460;5.710;2022-08-06T04:10:50;8.10;99.90
33023;DHT22;19390;51.460;5.710;2022-08-06T04:13:18;8.20;99.90
33023;DHT22;19390;51.460;5.710;2022-08-06T04:15:45;8.20;99.90
33023;DHT22;19390;51.460;5.710;2022-08-06T04:18:14;8.20;99.90
33023;DHT22;19390;51.460;5.710;2022-08-06T04:20:42;8.20;99.90
33023;DHT22;19390;51.460;5.710;2022-08-06T04:23:08;8.10;99.90
33023;DHT22;19390;51.460;5.710;2022-08-06T04:25:53;8.20;99.90
33023;DHT22;19390;51.460;5.710;2022-08-06T04:28:21;8.20;99.90
33023;DHT22;19390;51.460;5.710;2022-08-06T04:30:49;8.20;99.90
33023;DHT22;19390;51.460;5.710;2022-08-06T04:33:18;8.20;99.90
33023;DHT22;19390;51.460;5.710;2022-08-06T04:35:45;8.20;99.90
33023;DHT22;19390;51.460;5.710;2022-08-06T04:38:12;8.20;99.90
33023;DHT22;19390;51.460;5.710;2022-08-06T04:40:38;8.10;99.90
33023;DHT22;19390;51.460;5.710;2022-08-06T04:43:06;8.20;99.90
33023;DHT22;19390;51.460;5.710;2022-08-06T04:45:34;8.30;99.90
33023;DHT22;19390;51.460;5.710;2022-08-06T04:48:00;8.40;99.90
33023;DHT22;19390;51.460;5.710;2022-08-06T04:50:26;8.50;99.90
33023;DHT22;19390;51.460;5.710;2022-08-06T04:52:52;8.60;99.90
33023;DHT22;19390;51.460;5.710;2022-08-06T04:55:21;8.50;99.90
33023;DHT22;19390;51.460;5.710;2022-08-06T04:57:46;8.60;99.90
33023;DHT22;19390;51.460;5.710;2022-08-06T05:00:12;8.70;99.90
33023;DHT22;19390;51.460;5.710;2022-08-06T05:02:38;8.70;99.90
33023;DHT22;19390;51.460;5.710;2022-08-06T05:05:05;8.80;99.90
33023;DHT22;19390;51.460;5.710;2022-08-06T05:07:33;8.90;99.90
33023;DHT22;19390;51.460;5.710;2022-08-06T05:10:00;8.90;99.90
33023;DHT22;19390;51.460;5.710;2022-08-06T05:12:42;8.90;99.90
33023;DHT22;19390;51.460;5.710;2022-08-06T05:17:44;9.40;99.90
33023;DHT22;19390;51.460;5.710;2022-08-06T05:20:18;9.90;99.90
33023;DHT22;19390;51.460;5.710;2022-08-06T05:22:49;10.20;99.90
33023;DHT22;19390;51.460;5.710;2022-08-06T05:25:15;10.70;99.90
33023;DHT22;19390;51.460;5.710;2022-08-06T05:27:41;11.70;99.90
33023;DHT22;19390;51.460;5.710;2022-08-06T05:30:08;12.30;99.90
33023;DHT22;19390;51.460;5.710;2022-08-06T05:32:46;12.40;99.90
33023;DHT22;19390;51.460;5.710;2022-08-06T05:35:13;14.30;99.90
33023;DHT22;19390;51.460;5.710;2022-08-06T05:37:39;16.00;99.90
33023;DHT22;19390;51.460;5.710;2022-08-06T05:40:06;17.10;99.90
33023;DHT22;19390;51.460;5.710;2022-08-06T05:42:31;18.40;99.90
33023;DHT22;19390;51.460;5.710;2022-08-06T05:44:57;19.50;99.90
33023;DHT22;19390;51.460;5.710;2022-08-06T05:47:24;19.70;99.90
33023;DHT22;19390;51.460;5.710;2022-08-06T05:50:18;19.70;99.90
33023;DHT22;19390;51.460;5.710;2022-08-06T05:53:28;21.50;99.90
33023;DHT22;19390;51.460;5.710;2022-08-06T05:55:42;21.90;99.90
33023;DHT22;19390;51.460;5.710;2022-08-06T05:58:14;23.00;99.90
33023;DHT22;19390;51.460;5.710;2022-08-06T06:00:40;23.10;99.90
33023;DHT22;19390;51.460;5.710;2022-08-06T06:03:11;23.30;99.90
33023;DHT22;19390;51.460;5.710;2022-08-06T06:05:37;22.80;99.90
33023;DHT22;19390;51.460;5.710;2022-08-06T06:08:04;24.20;99.90
33023;DHT22;19390;51.460;5.710;2022-08-06T06:10:32;25.00;99.90
33023;DHT22;19390;51.460;5.710;2022-08-06T06:13:00;24.10;99.90
33023;DHT22;19390;51.460;5.710;2022-08-06T06:15:26;25.30;99.90
33023;DHT22;19390;51.460;5.710;2022-08-06T06:23:09;25.10;99.90
33023;DHT22;19390;51.460;5.710;2022-08-06T06:28:35;25.80;99.90
33023;DHT22;19390;51.460;5.710;2022-08-06T06:31:11;26.20;99.90
33023;DHT22;19390;51.460;5.710;2022-08-06T06:33:48;25.70;99.90
33023;DHT22;19390;51.460;5.710;2022-08-06T06:36:34;26.20;99.90
33023;DHT22;19390;51.460;5.710;2022-08-06T06:39:32;26.80;99.90
33023;DHT22;19390;51.460;5.710;2022-08-06T06:42:06;27.00;99.90
33023;DHT22;19390;51.460;5.710;2022-08-06T06:44:54;25.80;99.90
33023;DHT22;19390;51.460;5.710;2022-08-06T06:49:59;27.60;99.90
33023;DHT22;19390;51.460;5.710;2022-08-06T06:52:38;28.10;99.90
33023;DHT22;19390;51.460;5.710;2022-08-06T06:55:17;28.30;99.90
33023;DHT22;19390;51.460;5.710;2022-08-06T06:58:10;27.30;99.90
33023;DHT22;19390;51.460;5.710;2022-08-06T07:00:36;27.40;99.90
33023;DHT22;19390;51.460;5.710;2022-08-06T07:03:03;28.10;99.90
33023;DHT22;19390;51.460;5.710;2022-08-06T07:05:31;27.90;99.90
33023;DHT22;19390;51.460;5.710;2022-08-06T07:07:57;28.10;99.90
33023;DHT22;19390;51.460;5.710;2022-08-06T07:10:26;28.30;99.90
33023;DHT22;19390;51.460;5.710;2022-08-06T07:12:53;28.70;99.90
33023;DHT22;19390;51.460;5.710;2022-08-06T07:15:21;29.00;99.90
33023;DHT22;19390;51.460;5.710;2022-08-06T07:17:49;28.20;99.90
33023;DHT22;19390;51.460;5.710;2022-08-06T07:20:22;28.30;99.90
33023;DHT22;19390;51.460;5.710;2022-08-06T07:22:50;29.30;99.90
33023;DHT22;19390;51.460;5.710;2022-08-06T07:25:18;28.80;99.90
33023;DHT22;19390;51.460;5.710;2022-08-06T07:27:48;27.60;99.90
33023;DHT22;19390;51.460;5.710;2022-08-06T07:30:17;27.00;99.90
33023;DHT22;19390;51.460;5.710;2022-08-06T07:32:44;28.60;99.90
33023;DHT22;19390;51.460;5.710;2022-08-06T07:35:11;29.10;99.90
33023;DHT22;19390;51.460;5.710;2022-08-06T07:37:41;29.20;99.90
33023;DHT22;19390;51.460;5.710;2022-08-06T07:40:10;29.10;99.90
33023;DHT22;19390;51.460;5.710;2022-08-06T07:42:39;28.10;99.90
33023;DHT22;19390;51.460;5.710;2022-08-06T07:45:07;27.30;99.90
33023;DHT22;19390;51.460;5.710;2022-08-06T07:47:37;28.80;99.90
33023;DHT22;19390;51.460;5.710;2022-08-06T07:50:03;29.70;99.90
33023;DHT22;19390;51.460;5.710;2022-08-06T07:52:30;29.40;99.90
33023;DHT22;19390;51.460;5.710;2022-08-06T07:54:56;29.70;99.90
33023;DHT22;19390;51.460;5.710;2022-08-06T07:57:25;28.40;99.90
33023;DHT22;19390;51.460;5.710;2022-08-06T07:59:52;28.60;99.90
33023;DHT22;19390;51.460;5.710;2022-08-06T08:02:18;27.80;99.90
33023;DHT22;19390;51.460;5.710;2022-08-06T08:04:44;27.90;99.90
33023;DHT22;19390;51.460;5.710;2022-08-06T08:07:28;28.20;99.90
33023;DHT22;19390;51.460;5.710;2022-08-06T08:09:58;29.60;99.90
33023;DHT22;19390;51.460;5.710;2022-08-06T08:12:25;30.00;99.90
33023;DHT22;19390;51.460;5.710;2022-08-06T08:14:52;30.30;99.90
33023;DHT22;19390;51.460;5.710;2022-08-06T08:17:18;27.50;99.90
33023;DHT22;19390;51.460;5.710;2022-08-06T08:19:43;28.50;99.90
33023;DHT22;19390;51.460;5.710;2022-08-06T08:22:14;28.70;99.90
33023;DHT22;19390;51.460;5.710;2022-08-06T08:24:46;27.40;99.90
33023;DHT22;19390;51.460;5.710;2022-08-06T08:27:13;27.00;99.90
33023;DHT22;19390;51.460;5.710;2022-08-06T08:29:41;25.40;99.90
33023;DHT22;19390;51.460;5.710;2022-08-06T08:32:08;28.20;99.90
33023;DHT22;19390;51.460;5.710;2022-08-06T08:34:34;29.00;99.90
33023;DHT22;19390;51.460;5.710;2022-08-06T08:37:01;29.30;99.90
33023;DHT22;19390;51.460;5.710;2022-08-06T08:39:27;30.20;99.90
33023;DHT22;19390;51.460;5.710;2022-08-06T08:42:03;28.20;99.90
33023;DHT22;19390;51.460;5.710;2022-08-06T08:44:33;28.70;99.90
33023;DHT22;19390;51.460;5.710;2022-08-06T08:47:00;25.40;99.90
33023;DHT22;19390;51.460;5.710;2022-08-06T08:49:40;28.70;99.90
33023;DHT22;19390;51.460;5.710;2022-08-06T08:52:14;28.80;99.90
33023;DHT22;19390;51.460;5.710;2022-08-06T08:54:44;30.30;99.90
33023;DHT22;19390;51.460;5.710;2022-08-06T08:57:11;26.10;99.90
33023;DHT22;19390;51.460;5.710;2022-08-06T08:59:37;28.00;99.90
33023;DHT22;19390;51.460;5.710;2022-08-06T09:02:05;30.20;99.90
33023;DHT22;19390;51.460;5.710;2022-08-06T09:04:32;30.50;99.90
33023;DHT22;19390;51.460;5.710;2022-08-06T09:06:57;31.20;99.90
33023;DHT22;19390;51.460;5.710;2022-08-06T09:09:24;29.00;99.90
33023;DHT22;19390;51.460;5.710;2022-08-06T09:11:50;29.50;99.90
33023;DHT22;19390;51.460;5.710;2022-08-06T09:14:15;32.00;99.90
33023;DHT22;19390;51.460;5.710;2022-08-06T09:16:41;30.50;99.90
33023;DHT22;19390;51.460;5.710;2022-08-06T09:19:06;30.70;99.90
33023;DHT22;19390;51.460;5.710;2022-08-06T09:21:33;29.40;99.90
33023;DHT22;19390;51.460;5.710;2022-08-06T09:23:59;26.00;99.90
33023;DHT22;19390;51.460;5.710;2022-08-06T09:26:25;23.90;99.90
33023;DHT22;19390;51.460;5.710;2022-08-06T09:28:51;22.50;99.90
33023;DHT22;19390;51.460;5.710;2022-08-06T09:31:18;26.80;99.90
33023;DHT22;19390;51.460;5.710;2022-08-06T09:34:04;24.10;99.90
33023;DHT22;19390;51.460;5.710;2022-08-06T09:36:41;23.00;99.90
33023;DHT22;19390;51.460;5.710;2022-08-06T09:39:07;24.40;99.90
33023;DHT22;19390;51.460;5.710;2022-08-06T09:41:33;23.70;99.90
33023;DHT22;19390;51.460;5.710;2022-08-06T09:44:09;22.60;99.90
33023;DHT22;19390;51.460;5.710;2022-08-06T09:46:37;25.60;99.90
33023;DHT22;19390;51.460;5.710;2022-08-06T09:49:03;23.30;99.90
33023;DHT22;19390;51.460;5.710;2022-08-06T09:51:30;23.80;99.90
33023;DHT22;19390;51.460;5.710;2022-08-06T09:54:00;25.10;99.90
33023;DHT22;19390;51.460;5.710;2022-08-06T09:56:26;27.80;99.90
33023;DHT22;19390;51.460;5.710;2022-08-06T09:59:05;29.70;99.90
33023;DHT22;19390;51.460;5.710;2022-08-06T10:01:42;31.00;99.90
33023;DHT22;19390;51.460;5.710;2022-08-06T10:04:25;28.70;99.90
33023;DHT22;19390;51.460;5.710;2022-08-06T10:06:54;31.40;99.90
33023;DHT22;19390;51.460;5.710;2022-08-06T10:09:20;31.80;99.90
33023;DHT22;19390;51.460;5.710;2022-08-06T10:11:45;31.60;99.90
33023;DHT22;19390;51.460;5.710;2022-08-06T10:14:40;32.20;99.90
33023;DHT22;19390;51.460;5.710;2022-08-06T10:17:13;30.70;99.90
33023;DHT22;19390;51.460;5.710;2022-08-06T10:19:41;27.50;99.90
33023;DHT22;19390;51.460;5.710;2022-08-06T10:22:12;26.80;99.90
33023;DHT22;19390;51.460;5.710;2022-08-06T10:24:46;27.60;99.90
33023;DHT22;19390;51.460;5.710;2022-08-06T10:27:14;26.50;99.90
33023;DHT22;19390;51.460;5.710;2022-08-06T10:29:52;29.10;99.90
33023;DHT22;19390;51.460;5.710;2022-08-06T10:32:35;30.70;99.90
33023;DHT22;19390;51.460;5.710;2022-08-06T10:35:04;30.70;99.90
33023;DHT22;19390;51.460;5.710;2022-08-06T10:37:33;30.20;99.90
33023;DHT22;19390;51.460;5.710;2022-08-06T10:40:02;29.80;99.30
33023;DHT22;19390;51.460;5.710;2022-08-06T10:42:28;30.80;99.90
33023;DHT22;19390;51.460;5.710;2022-08-06T10:44:55;30.90;99.90
33023;DHT22;19390;51.460;5.710;2022-08-06T10:47:24;30.50;97.90
33023;DHT22;19390;51.460;5.710;2022-08-06T10:49:52;31.00;98.40
33023;DHT22;19390;51.460;5.710;2022-08-06T10:52:19;30.80;98.30
33023;DHT22;19390;51.460;5.710;2022-08-06T10:54:45;31.20;97.70
33023;DHT22;19390;51.460;5.710;2022-08-06T10:57:12;32.20;96.70
33023;DHT22;19390;51.460;5.710;2022-08-06T10:59:40;32.20;98.00
33023;DHT22;19390;51.460;5.710;2022-08-06T11:04:56;26.60;99.60
33023;DHT22;19390;51.460;5.710;2022-08-06T11:10:34;30.00;99.90
33023;DHT22;19390;51.460;5.710;2022-08-06T11:15:48;31.10;97.90
33023;DHT22;19390;51.460;5.710;2022-08-06T11:18:15;31.00;94.00
33023;DHT22;19390;51.460;5.710;2022-08-06T11:20:43;31.70;96.50
33023;DHT22;19390;51.460;5.710;2022-08-06T11:28:05;29.70;97.40
33023;DHT22;19390;51.460;5.710;2022-08-06T11:30:47;31.40;96.40
33023;DHT22;19390;51.460;5.710;2022-08-06T11:33:18;28.80;94.70
33023;DHT22;19390;51.460;5.710;2022-08-06T11:35:46;27.60;96.00
33023;DHT22;19390;51.460;5.710;2022-08-06T11:38:16;25.60;96.80
33023;DHT22;19390;51.460;5.710;2022-08-06T11:41:05;27.10;97.40
33023;DHT22;19390;51.460;5.710;2022-08-06T11:44:15;29.40;96.70
33023;DHT22;19390;51.460;5.710;2022-08-06T11:46:25;28.40;97.20
33023;DHT22;19390;51.460;5.710;2022-08-06T11:57:20;25.30;97.80
33023;DHT22;19390;51.460;5.710;2022-08-06T12:00:08;25.10;98.20
33023;DHT22;19390;51.460;5.710;2022-08-06T12:07:40;29.80;96.40
33023;DHT22;19390;51.460;5.710;2022-08-06T12:12:38;28.20;97.20
33023;DHT22;19390;51.460;5.710;2022-08-06T12:17:55;30.50;96.50
33023;DHT22;19390;51.460;5.710;2022-08-06T12:23:13;29.00;94.10
33023;DHT22;19390;51.460;5.710;2022-08-06T12:25:45;31.60;92.40
33023;DHT22;19390;51.460;5.710;2022-08-06T12:28:13;27.30;92.60
33023;DHT22;19390;51.460;5.710;2022-08-06T12:30:43;30.00;95.70
33023;DHT22;19390;51.460;5.710;2022-08-06T12:33:10;28.40;94.10
33023;DHT22;19390;51.460;5.710;2022-08-06T12:35:56;30.00;92.30
33023;DHT22;19390;51.460;5.710;2022-08-06T12:38:24;29.10;94.70
33023;DHT22;19390;51.460;5.710;2022-08-06T12:40:59;29.30;94.30
33023;DHT22;19390;51.460;5.710;2022-08-06T12:43:27;29.60;94.90
33023;DHT22;19390;51.460;5.710;2022-08-06T12:46:06;29.40;94.90
33023;DHT22;19390;51.460;5.710;2022-08-06T12:48:36;29.30;93.30
33023;DHT22;19390;51.460;5.710;2022-08-06T12:51:09;28.60;94.20
33023;DHT22;19390;51.460;5.710;2022-08-06T12:54:00;29.90;93.90
33023;DHT22;19390;51.460;5.710;2022-08-06T12:56:29;30.60;93.20
33023;DHT22;19390;51.460;5.710;2022-08-06T12:58:55;29.10;93.00
33023;DHT22;19390;51.460;5.710;2022-08-06T13:01:23;29.30;93.60
33023;DHT22;19390;51.460;5.710;2022-08-06T13:03:52;30.00;93.50
33023;DHT22;19390;51.460;5.710;2022-08-06T13:06:23;29.80;92.50
33023;DHT22;19390;51.460;5.710;2022-08-06T13:08:50;29.70;93.30
33023;DHT22;19390;51.460;5.710;2022-08-06T13:11:16;29.50;94.00
33023;DHT22;19390;51.460;5.710;2022-08-06T13:13:46;27.60;93.40
33023;DHT22;19390;51.460;5.710;2022-08-06T13:16:13;29.20;94.30
33023;DHT22;19390;51.460;5.710;2022-08-06T13:18:40;29.50;93.20
33023;DHT22;19390;51.460;5.710;2022-08-06T13:21:17;28.50;92.60
33023;DHT22;19390;51.460;5.710;2022-08-06T13:23:46;28.80;94.80
33023;DHT22;19390;51.460;5.710;2022-08-06T13:26:24;27.50;93.20
33023;DHT22;19390;51.460;5.710;2022-08-06T13:31:40;26.70;94.90
33023;DHT22;19390;51.460;5.710;2022-08-06T13:34:08;27.50;93.30
33023;DHT22;19390;51.460;5.710;2022-08-06T13:36:36;26.50;93.20
33023;DHT22;19390;51.460;5.710;2022-08-06T13:41:45;28.70;93.10
33023;DHT22;19390;51.460;5.710;2022-08-06T13:44:36;27.80;92.90
33023;DHT22;19390;51.460;5.710;2022-08-06T13:47:07;27.80;94.60
33023;DHT22;19390;51.460;5.710;2022-08-06T13:49:33;29.30;93.90
33023;DHT22;19390;51.460;5.710;2022-08-06T13:51:59;29.40;92.00
33023;DHT22;19390;51.460;5.710;2022-08-06T13:54:25;29.10;92.70
33023;DHT22;19390;51.460;5.710;2022-08-06T13:56:53;29.40;92.60
33023;DHT22;19390;51.460;5.710;2022-08-06T13:59:20;29.10;93.50
33023;DHT22;19390;51.460;5.710;2022-08-06T14:01:46;29.00;92.30
33023;DHT22;19390;51.460;5.710;2022-08-06T14:04:13;29.60;91.20
33023;DHT22;19390;51.460;5.710;2022-08-06T14:06:40;28.60;92.00
33023;DHT22;19390;51.460;5.710;2022-08-06T14:09:06;28.50;90.60
33023;DHT22;19390;51.460;5.710;2022-08-06T14:11:31;27.80;91.90
33023;DHT22;19390;51.460;5.710;2022-08-06T14:13:57;27.10;92.20
33023;DHT22;19390;51.460;5.710;2022-08-06T14:16:22;26.90;92.00
33023;DHT22;19390;51.460;5.710;2022-08-06T14:18:48;26.30;93.20
33023;DHT22;19390;51.460;5.710;2022-08-06T14:21:13;26.10;93.30
33023;DHT22;19390;51.460;5.710;2022-08-06T14:23:39;26.20;93.30
33023;DHT22;19390;51.460;5.710;2022-08-06T14:26:05;26.80;92.40
33023;DHT22;19390;51.460;5.710;2022-08-06T14:28:33;27.60;91.80
33023;DHT22;19390;51.460;5.710;2022-08-06T14:30:59;27.50;91.30
33023;DHT22;19390;51.460;5.710;2022-08-06T14:33:25;27.80;92.30
33023;DHT22;19390;51.460;5.710;2022-08-06T14:35:51;27.40;92.10
33023;DHT22;19390;51.460;5.710;2022-08-06T14:38:16;26.60;92.80
33023;DHT22;19390;51.460;5.710;2022-08-06T14:40:42;25.60;93.70
33023;DHT22;19390;51.460;5.710;2022-08-06T14:43:26;25.50;93.20
33023;DHT22;19390;51.460;5.710;2022-08-06T14:46:10;25.30;93.60
33023;DHT22;19390;51.460;5.710;2022-08-06T14:48:36;25.20;93.80
33023;DHT22;19390;51.460;5.710;2022-08-06T14:51:03;25.00;93.70
33023;DHT22;19390;51.460;5.710;2022-08-06T14:53:28;25.30;93.80
33023;DHT22;19390;51.460;5.710;2022-08-06T14:55:54;25.00;94.30
33023;DHT22;19390;51.460;5.710;2022-08-06T14:58:20;25.20;94.80
33023;DHT22;19390;51.460;5.710;2022-08-06T15:00:45;24.70;94.60
33023;DHT22;19390;51.460;5.710;2022-08-06T15:03:16;24.70;94.90
33023;DHT22;19390;51.460;5.710;2022-08-06T15:05:42;24.60;96.90
33023;DHT22;19390;51.460;5.710;2022-08-06T15:08:08;24.10;97.00
33023;DHT22;19390;51.460;5.710;2022-08-06T15:10:34;24.20;97.30
33023;DHT22;19390;51.460;5.710;2022-08-06T15:12:59;24.30;97.90
33023;DHT22;19390;51.460;5.710;2022-08-06T15:15:25;24.60;95.70
33023;DHT22;19390;51.460;5.710;2022-08-06T15:17:51;25.10;97.10
33023;DHT22;19390;51.460;5.710;2022-08-06T15:20:16;25.30;95.60
33023;DHT22;19390;51.460;5.710;2022-08-06T15:22:42;25.20;94.10
33023;DHT22;19390;51.460;5.710;2022-08-06T15:25:08;25.40;96.80
33023;DHT22;19390;51.460;5.710;2022-08-06T15:27:33;25.50;93.80
33023;DHT22;19390;51.460;5.710;2022-08-06T15:29:59;25.80;95.70
33023;DHT22;19390;51.460;5.710;2022-08-06T15:32:25;25.50;94.70
33023;DHT22;19390;51.460;5.710;2022-08-06T15:34:51;25.60;94.70
33023;DHT22;19390;51.460;5.710;2022-08-06T15:37:17;25.40;96.20
33023;DHT22;19390;51.460;5.710;2022-08-06T15:39:45;25.70;95.40
33023;DHT22;19390;51.460;5.710;2022-08-06T15:42:11;25.80;96.10
33023;DHT22;19390;51.460;5.710;2022-08-06T15:44:36;25.60;95.50
33023;DHT22;19390;51.460;5.710;2022-08-06T15:47:04;25.80;97.00
33023;DHT22;19390;51.460;5.710;2022-08-06T15:49:29;25.90;96.20
33023;DHT22;19390;51.460;5.710;2022-08-06T15:51:55;25.40;97.20
33023;DHT22;19390;51.460;5.710;2022-08-06T15:54:21;26.30;97.00
33023;DHT22;19390;51.460;5.710;2022-08-06T15:56:47;24.10;97.50
33023;DHT22;19390;51.460;5.710;2022-08-06T15:59:12;24.70;98.10
33023;DHT22;19390;51.460;5.710;2022-08-06T16:01:39;25.60;97.80
33023;DHT22;19390;51.460;5.710;2022-08-06T16:04:06;26.00;96.80
33023;DHT22;19390;51.460;5.710;2022-08-06T16:06:32;25.20;96.20
33023;DHT22;19390;51.460;5.710;2022-08-06T16:08:58;24.30;98.70
33023;DHT22;19390;51.460;5.710;2022-08-06T16:11:24;24.10;97.60
33023;DHT22;19390;51.460;5.710;2022-08-06T16:13:50;24.60;97.80
33023;DHT22;19390;51.460;5.710;2022-08-06T16:16:15;24.40;98.00
33023;DHT22;19390;51.460;5.710;2022-08-06T16:18:41;24.50;97.40
33023;DHT22;19390;51.460;5.710;2022-08-06T16:21:08;24.00;97.70
33023;DHT22;19390;51.460;5.710;2022-08-06T16:23:34;23.80;98.10
33023;DHT22;19390;51.460;5.710;2022-08-06T16:26:00;23.70;99.30
33023;DHT22;19390;51.460;5.710;2022-08-06T16:28:25;23.90;98.10
33023;DHT22;19390;51.460;5.710;2022-08-06T16:30:51;23.70;96.70
33023;DHT22;19390;51.460;5.710;2022-08-06T16:33:17;23.80;96.90
33023;DHT22;19390;51.460;5.710;2022-08-06T16:35:43;24.20;97.70
33023;DHT22;19390;51.460;5.710;2022-08-06T16:38:10;23.60;97.00
33023;DHT22;19390;51.460;5.710;2022-08-06T16:40:36;23.40;97.30
33023;DHT22;19390;51.460;5.710;2022-08-06T16:43:02;23.20;97.90
33023;DHT22;19390;51.460;5.710;2022-08-06T16:45:27;23.20;98.30
33023;DHT22;19390;51.460;5.710;2022-08-06T16:47:54;23.20;98.20
33023;DHT22;19390;51.460;5.710;2022-08-06T16:50:21;23.20;98.10